Time;durP1;ratioP1;P1;durP2;ratioP2;P2;SDS_P1;SDS_P2;PMS_P1;PMS_P2;Temp;Humidity;BMP_temperature;BMP_pressure;BME280_temperature;BME280_humidity;BME280_pressure;Samples;Min_cycle;Max_cycle;Signal;HPM_P1;HPM_P2
2022/11/30 00:02:13;;;;;;;;;;;;;;;5.69;65.79;101144.81;5418912;32;34807;-73
2022/11/30 00:05:15;;;;;;;;;;;;;;;6.28;64.41;101140.00;5436399;32;34738;-74
2022/11/30 00:08:16;;;;;;;;;;;;;;;6.28;64.86;101132.19;5405597;32;34369;-71
2022/11/30 00:11:20;;;;;;;;;;;;;;;6.57;63.52;101135.37;5436540;32;35499;-71
2022/11/30 00:14:21;;;;;;;;;;;;;;;5.43;66.77;101144.97;5404608;32;34729;-71
2022/11/30 00:17:23;;;;;;;;;;;;;;;6.03;65.07;101139.38;5425284;32;34954;-73
2022/11/30 00:20:25;;;;;;;;;;;;;;;6.11;65.13;101140.16;5409563;32;34982;-74
2022/11/30 00:23:46;;;;;;;;;;;;;;;6.06;64.91;101135.00;5417606;32;35291;-70
2022/11/30 00:26:47;;;;;;;;;;;;;;;6.11;64.72;101135.78;5421003;32;34572;-70
2022/11/30 00:29:49;;;;;;;;;;;;;;;6.62;63.84;101130.06;5418901;32;34757;-71
2022/11/30 00:32:55;;;;;;;;;;;;;;;5.89;65.61;101134.22;5435125;32;34817;-73
2022/11/30 00:35:57;;;;;;;;;;;;;;;5.35;66.58;101132.00;5417634;32;34920;-70
2022/11/30 00:38:59;;;;;;;;;;;;;;;6.03;65.07;101128.94;5400828;32;34684;-73
2022/11/30 00:42:01;;;;;;;;;;;;;;;6.00;64.47;101126.34;5428487;32;36874;-74
2022/11/30 00:45:03;;;;;;;;;;;;;;;6.02;64.77;101129.81;5418349;32;36529;-73
2022/11/30 00:48:04;;;;;;;;;;;;;;;5.54;65.12;101137.97;5422163;32;35212;-74
2022/11/30 00:51:07;;;;;;;;;;;;;;;5.46;66.37;101138.87;5419498;32;35060;-70
2022/11/30 00:54:09;;;;;;;;;;;;;;;5.09;68.98;101141.69;5415546;32;34616;-73
2022/11/30 00:57:10;;;;;;;;;;;;;;;5.39;67.48;101138.91;5415335;32;35438;-73
2022/11/30 01:00:13;;;;;;;;;;;;;;;5.75;66.64;101134.34;5419480;32;34309;-73
2022/11/30 01:03:14;;;;;;;;;;;;;;;5.85;65.76;101132.50;5418316;32;35097;-71
2022/11/30 01:06:16;;;;;;;;;;;;;;;5.14;68.19;101137.31;5417360;32;34985;-74
2022/11/30 01:09:18;;;;;;;;;;;;;;;6.28;64.52;101132.19;5436280;32;34930;-70
2022/11/30 01:12:20;;;;;;;;;;;;;;;6.74;62.51;101122.97;5419114;32;35393;-71
2022/11/30 01:15:22;;;;;;;;;;;;;;;6.40;63.54;101125.09;5432317;32;35817;-73
2022/11/30 01:18:24;;;;;;;;;;;;;;;5.98;64.30;101139.38;5414604;32;35977;-70
2022/11/30 01:21:26;;;;;;;;;;;;;;;5.67;65.64;101139.63;5403260;32;35079;-71
2022/11/30 01:24:28;;;;;;;;;;;;;;;5.84;66.17;101144.69;5434338;32;34396;-73
2022/11/30 01:27:30;;;;;;;;;;;;;;;5.30;67.41;101131.16;5413368;32;35225;-72
2022/11/30 01:30:32;;;;;;;;;;;;;;;6.43;63.92;101132.88;5434184;32;44443;-71
2022/11/30 01:33:34;;;;;;;;;;;;;;;5.27;67.51;101136.38;5402369;32;34538;-70
2022/11/30 01:36:37;;;;;;;;;;;;;;;4.98;68.73;101138.25;5415532;32;35170;-74
2022/11/30 01:39:39;;;;;;;;;;;;;;;5.21;69.00;101122.50;5419537;32;35697;-72
2022/11/30 01:42:45;;;;;;;;;;;;;;;5.32;67.96;101131.13;5411907;32;34361;-70
2022/11/30 01:45:47;;;;;;;;;;;;;;;6.05;65.99;101135.84;5433806;32;35619;-70
2022/11/30 01:49:17;;;;;;;;;;;;;;;5.74;66.54;101129.13;5397587;32;34832;-72
2022/11/30 01:52:24;;;;;;;;;;;;;;;5.66;67.40;101132.66;5426961;32;34936;-73
2022/11/30 01:55:27;;;;;;;;;;;;;;;5.29;68.73;101121.59;5413118;32;34958;-69
2022/11/30 01:58:28;;;;;;;;;;;;;;;4.84;70.24;101126.16;5419924;32;35066;-70
2022/11/30 02:01:30;;;;;;;;;;;;;;;6.24;65.09;101126.97;5435161;32;35484;-74
2022/11/30 02:04:33;;;;;;;;;;;;;;;5.16;67.98;101126.03;5403475;32;44701;-71
2022/11/30 02:07:35;;;;;;;;;;;;;;;5.15;67.97;101132.09;5435871;32;35449;-71
2022/11/30 02:10:39;;;;;;;;;;;;;;;5.44;66.58;101118.91;5418783;32;35243;-73
2022/11/30 02:14:00;;;;;;;;;;;;;;;5.51;66.61;101124.06;5433222;32;34345;-71
2022/11/30 02:17:20;;;;;;;;;;;;;;;5.35;66.36;101125.91;5430997;32;46520;-70
2022/11/30 02:20:31;;;;;;;;;;;;;;;4.71;68.88;101113.19;5397974;32;34567;-70
2022/11/30 02:23:53;;;;;;;;;;;;;;;5.19;67.54;101119.06;5427883;32;44514;-70
2022/11/30 02:27:17;;;;;;;;;;;;;;;4.96;69.12;101125.25;5413718;32;34774;-73
2022/11/30 02:30:20;;;;;;;;;;;;;;;5.41;68.06;101120.66;5398055;32;35045;-72
2022/11/30 02:33:23;;;;;;;;;;;;;;;5.71;65.59;101117.84;5432763;32;34607;-73
2022/11/30 02:36:25;;;;;;;;;;;;;;;5.31;67.81;101116.38;5403968;32;34629;-70
2022/11/30 02:39:27;;;;;;;;;;;;;;;5.88;65.27;101111.63;5417439;32;32876;-73
2022/11/30 02:42:29;;;;;;;;;;;;;;;5.73;65.85;101107.38;5414254;32;34853;-73
2022/11/30 02:45:37;;;;;;;;;;;;;;;5.15;67.58;101098.22;5432350;32;36807;-73
2022/11/30 02:48:41;;;;;;;;;;;;;;;5.23;67.27;101105.13;5424503;32;34359;-73
2022/11/30 02:51:43;;;;;;;;;;;;;;;4.58;69.99;101101.97;5419415;32;35082;-72
2022/11/30 02:54:45;;;;;;;;;;;;;;;4.92;69.17;101094.87;5409415;32;33967;-70
2022/11/30 02:57:47;;;;;;;;;;;;;;;5.11;67.44;101090.44;5404229;32;34366;-73
2022/11/30 03:00:49;;;;;;;;;;;;;;;4.75;68.31;101096.66;5434226;32;35163;-71
2022/11/30 03:03:51;;;;;;;;;;;;;;;4.94;67.92;101103.53;5400635;32;34465;-73
2022/11/30 03:06:53;;;;;;;;;;;;;;;4.90;67.92;101101.84;5425832;32;35704;-70
2022/11/30 03:09:55;;;;;;;;;;;;;;;4.95;67.45;101107.87;5426959;32;34733;-74
2022/11/30 03:12:57;;;;;;;;;;;;;;;5.27;66.90;101104.22;5415558;32;35402;-70
2022/11/30 03:16:06;;;;;;;;;;;;;;;4.39;68.93;101108.09;5421516;32;34471;-74
2022/11/30 03:19:08;;;;;;;;;;;;;;;5.19;66.92;101103.41;5402098;32;44237;-70
2022/11/30 03:22:10;;;;;;;;;;;;;;;5.06;67.41;101093.06;5426375;32;34836;-73
2022/11/30 03:25:12;;;;;;;;;;;;;;;6.21;63.30;101085.25;5418352;32;35625;-74
2022/11/30 03:28:13;;;;;;;;;;;;;;;6.15;63.03;101103.56;5421990;32;35161;-73
2022/11/30 03:31:15;;;;;;;;;;;;;;;5.99;63.94;101104.63;5430545;32;35273;-73
2022/11/30 03:34:17;;;;;;;;;;;;;;;5.86;64.26;101110.75;5417390;32;35930;-71
2022/11/30 03:37:19;;;;;;;;;;;;;;;5.97;63.59;101106.34;5433318;32;34900;-70
2022/11/30 03:40:21;;;;;;;;;;;;;;;5.76;63.97;101112.59;5400546;32;35498;-74
2022/11/30 03:43:23;;;;;;;;;;;;;;;6.24;63.07;101116.53;5430861;32;35479;-73
2022/11/30 03:46:26;;;;;;;;;;;;;;;5.72;64.09;101122.16;5419536;32;34566;-73
2022/11/30 03:49:28;;;;;;;;;;;;;;;5.84;64.05;101122.97;5420507;32;34790;-70
2022/11/30 03:52:30;;;;;;;;;;;;;;;5.80;63.58;101114.31;5429146;32;36734;-73
2022/11/30 03:55:31;;;;;;;;;;;;;;;6.28;62.12;101119.13;5402534;32;45124;-71
2022/11/30 03:58:33;;;;;;;;;;;;;;;6.42;62.81;101110.25;5419963;32;34985;-71
2022/11/30 04:01:35;;;;;;;;;;;;;;;6.42;61.99;101104.19;5402780;32;35482;-70
2022/11/30 04:04:37;;;;;;;;;;;;;;;6.27;62.80;101105.22;5431684;32;34326;-73
2022/11/30 04:07:39;;;;;;;;;;;;;;;6.21;62.55;101118.31;5417940;32;34301;-71
2022/11/30 04:10:41;;;;;;;;;;;;;;;6.18;62.11;101116.62;5422233;32;36141;-70
2022/11/30 04:13:43;;;;;;;;;;;;;;;7.02;59.45;101096.53;5413293;32;34888;-70
2022/11/30 04:16:45;;;;;;;;;;;;;;;6.90;59.62;101108.00;5419083;32;35084;-72
2022/11/30 04:19:47;;;;;;;;;;;;;;;6.23;60.95;101108.72;5409964;32;34442;-74
2022/11/30 04:22:48;;;;;;;;;;;;;;;5.63;62.89;101113.56;5397539;32;35043;-70
2022/11/30 04:25:51;;;;;;;;;;;;;;;6.38;60.37;101103.38;5434265;32;35068;-70
2022/11/30 04:28:52;;;;;;;;;;;;;;;5.78;62.68;101113.44;5401017;32;35602;-71
2022/11/30 04:31:54;;;;;;;;;;;;;;;5.46;63.39;101118.00;5401123;32;34662;-73
2022/11/30 04:34:56;;;;;;;;;;;;;;;5.92;62.12;101116.81;5432217;32;35049;-71
2022/11/30 04:37:58;;;;;;;;;;;;;;;5.48;62.97;101117.16;5415102;32;34372;-70
2022/11/30 04:41:04;;;;;;;;;;;;;;;6.01;61.44;101120.25;5416167;32;34454;-72
2022/11/30 04:44:06;;;;;;;;;;;;;;;5.64;62.24;101123.09;5405183;32;44612;-71
2022/11/30 04:47:08;;;;;;;;;;;;;;;6.39;59.77;101118.16;5415933;32;34767;-70
2022/11/30 04:50:10;;;;;;;;;;;;;;;5.57;61.74;101118.81;5402395;32;34811;-70
2022/11/30 04:53:12;;;;;;;;;;;;;;;5.74;61.90;101118.72;5418382;32;34655;-72
2022/11/30 04:56:14;;;;;;;;;;;;;;;6.29;60.25;101124.31;5419293;32;35416;-70
2022/11/30 04:59:16;;;;;;;;;;;;;;;6.31;59.96;101111.25;5417689;32;34825;-69
2022/11/30 05:02:17;;;;;;;;;;;;;;;5.93;60.27;101115.97;5434822;32;34331;-70
2022/11/30 05:05:19;;;;;;;;;;;;;;;5.26;61.89;101105.09;5413348;32;35385;-73
2022/11/30 05:08:21;;;;;;;;;;;;;;;5.31;62.07;101116.38;5431720;32;35705;-70
2022/11/30 05:11:23;;;;;;;;;;;;;;;5.09;62.85;101110.44;5418121;32;35475;-71
2022/11/30 05:14:25;;;;;;;;;;;;;;;5.46;62.45;101118.87;5416536;32;34344;-69
2022/11/30 05:17:27;;;;;;;;;;;;;;;5.86;60.17;101122.09;5436149;32;35583;-72
2022/11/30 05:20:29;;;;;;;;;;;;;;;6.24;59.46;101118.28;5395745;32;34569;-71
2022/11/30 05:23:31;;;;;;;;;;;;;;;6.44;58.87;101116.34;5431791;32;44228;-72
2022/11/30 05:26:33;;;;;;;;;;;;;;;5.94;59.58;101125.53;5407925;32;34231;-73
2022/11/30 05:29:36;;;;;;;;;;;;;;;6.35;58.77;101120.78;5433107;32;35154;-73
2022/11/30 05:32:38;;;;;;;;;;;;;;;6.23;58.28;101132.22;5406845;32;34391;-70
2022/11/30 05:35:40;;;;;;;;;;;;;;;5.69;59.17;101135.25;5389617;32;34259;-70
2022/11/30 05:38:42;;;;;;;;;;;;;;;6.01;58.89;101128.09;5431937;32;35012;-70
2022/11/30 05:41:44;;;;;;;;;;;;;;;6.07;57.86;101120.19;5401009;32;34960;-70
2022/11/30 05:44:46;;;;;;;;;;;;;;;6.55;56.81;101129.28;5431570;32;35148;-70
2022/11/30 05:47:49;;;;;;;;;;;;;;;6.31;56.71;101125.19;5401702;32;34340;-73
2022/11/30 05:50:50;;;;;;;;;;;;;;;5.91;58.00;101133.34;5429878;32;34814;-71
2022/11/30 05:53:52;;;;;;;;;;;;;;;5.89;57.46;101129.88;5405295;32;35502;-73
2022/11/30 05:56:54;;;;;;;;;;;;;;;5.83;58.48;101136.88;5403062;32;34747;-70
2022/11/30 05:59:56;;;;;;;;;;;;;;;5.81;57.90;101134.28;5430084;32;34596;-72
2022/11/30 06:02:58;;;;;;;;;;;;;;;5.98;58.02;101129.81;5413441;32;34442;-73
2022/11/30 06:06:00;;;;;;;;;;;;;;;5.78;58.04;101123.88;5418125;32;34564;-75
2022/11/30 06:09:02;;;;;;;;;;;;;;;6.05;57.79;101127.16;5415506;32;44779;-67
2022/11/30 06:12:04;;;;;;;;;;;;;;;6.21;57.20;101131.38;5417026;32;35454;-71
2022/11/30 06:15:07;;;;;;;;;;;;;;;6.40;56.13;101132.94;5418226;32;34313;-73
2022/11/30 06:18:10;;;;;;;;;;;;;;;6.16;56.33;101135.75;5415316;32;34315;-71
2022/11/30 06:21:12;;;;;;;;;;;;;;;5.83;57.76;101140.34;5412768;32;34203;-68
2022/11/30 06:24:14;;;;;;;;;;;;;;;6.20;56.69;101140.94;5413998;32;34255;-81
2022/11/30 06:27:16;;;;;;;;;;;;;;;6.45;55.86;101149.41;5432595;32;33988;-83
2022/11/30 06:30:17;;;;;;;;;;;;;;;6.05;56.87;101154.12;5416161;32;34418;-74
2022/11/30 06:33:23;;;;;;;;;;;;;;;6.67;55.13;101147.44;5430253;32;34412;-72
2022/11/30 06:36:25;;;;;;;;;;;;;;;6.38;55.99;101158.19;5422956;32;34451;-77
2022/11/30 06:39:34;;;;;;;;;;;;;;;7.02;54.09;101157.50;5399732;32;45514;-77
2022/11/30 06:42:56;;;;;;;;;;;;;;;6.75;54.05;101160.41;5425981;32;36597;-75
2022/11/30 06:45:58;;;;;;;;;;;;;;;6.71;54.59;101169.19;5402212;32;34352;-75
2022/11/30 06:49:00;;;;;;;;;;;;;;;7.50;52.74;101162.94;5432151;32;34333;-73
2022/11/30 06:52:02;;;;;;;;;;;;;;;7.24;53.20;101165.91;5410118;32;43815;-75
2022/11/30 06:55:04;;;;;;;;;;;;;;;6.93;53.73;101160.19;5411661;32;34126;-85
2022/11/30 06:58:07;;;;;;;;;;;;;;;6.91;53.52;101164.59;5418577;32;34223;-76
2022/11/30 07:01:11;;;;;;;;;;;;;;;6.45;55.09;101175.53;5401811;32;36193;-71
2022/11/30 07:04:13;;;;;;;;;;;;;;;7.40;52.44;101152.63;5427979;32;35428;-73
2022/11/30 07:07:15;;;;;;;;;;;;;;;6.39;53.88;101159.94;5411782;32;34442;-72
2022/11/30 07:10:17;;;;;;;;;;;;;;;5.91;56.13;101164.66;5404413;32;34097;-76
2022/11/30 07:13:21;;;;;;;;;;;;;;;6.66;54.70;101165.75;5418151;32;37158;-74
2022/11/30 07:16:23;;;;;;;;;;;;;;;7.46;52.23;101148.19;5414676;32;37746;-72
2022/11/30 07:19:25;;;;;;;;;;;;;;;6.81;53.92;101157.72;5412018;32;34741;-75
2022/11/30 07:22:27;;;;;;;;;;;;;;;7.15;52.39;101160.81;5407259;32;36555;-74
2022/11/30 07:28:53;;;;;;;;;;;;;;;6.58;54.54;101163.22;5399421;32;34518;-70
2022/11/30 07:31:55;;;;;;;;;;;;;;;6.13;55.40;101167.12;5417288;32;34162;-72
2022/11/30 07:34:57;;;;;;;;;;;;;;;6.77;53.92;101162.13;5420348;32;34320;-77
2022/11/30 07:37:59;;;;;;;;;;;;;;;7.07;53.01;101150.44;5417108;32;34034;-72
2022/11/30 07:41:08;;;;;;;;;;;;;;;7.02;53.08;101160.09;5411142;32;44549;-75
2022/11/30 07:44:13;;;;;;;;;;;;;;;7.05;52.93;101151.34;5404882;32;35466;-73
2022/11/30 07:47:15;;;;;;;;;;;;;;;6.98;53.20;101147.09;5427263;32;35348;-72
2022/11/30 07:50:17;;;;;;;;;;;;;;;6.90;53.19;101156.78;5405087;32;34570;-71
2022/11/30 07:53:19;;;;;;;;;;;;;;;7.19;51.99;101146.81;5416089;32;35140;-72
2022/11/30 07:56:21;;;;;;;;;;;;;;;7.04;52.82;101142.66;5424778;32;36075;-75
2022/11/30 07:59:23;;;;;;;;;;;;;;;7.22;50.98;101154.63;5415283;32;35474;-74
2022/11/30 08:02:26;;;;;;;;;;;;;;;7.05;52.14;101153.97;5432904;32;35382;-77
2022/11/30 08:05:31;;;;;;;;;;;;;;;6.67;53.17;101154.41;5387956;32;34764;-77
2022/11/30 08:08:34;;;;;;;;;;;;;;;6.90;52.47;101157.62;5424174;32;35505;-73
2022/11/30 08:11:36;;;;;;;;;;;;;;;7.63;51.42;101150.56;5406315;32;34751;-72
2022/11/30 08:14:38;;;;;;;;;;;;;;;7.41;51.76;101151.78;5416382;32;35192;-70
2022/11/30 08:18:04;;;;;;;;;;;;;;;7.51;51.42;101161.19;5432977;32;35632;-71
2022/11/30 08:21:07;;;;;;;;;;;;;;;6.78;52.87;101157.78;5396077;32;44991;-73
2022/11/30 08:24:10;;;;;;;;;;;;;;;6.97;53.06;101161.03;5408858;32;34239;-73
2022/11/30 08:27:12;;;;;;;;;;;;;;;7.35;51.89;101150.09;5402500;32;35843;-79
2022/11/30 08:30:14;;;;;;;;;;;;;;;7.78;50.53;101145.09;5425635;32;33534;-74
2022/11/30 08:33:16;;;;;;;;;;;;;;;7.11;51.96;101147.81;5419444;32;35838;-75
2022/11/30 08:36:19;;;;;;;;;;;;;;;7.55;52.08;101145.44;5403097;32;35457;-73
2022/11/30 08:39:21;;;;;;;;;;;;;;;6.86;53.16;101142.88;5424921;32;34277;-69
2022/11/30 08:42:23;;;;;;;;;;;;;;;7.60;51.41;101138.41;5420352;32;35644;-79
2022/11/30 08:45:25;;;;;;;;;;;;;;;7.01;52.86;101147.03;5424845;32;34992;-78
2022/11/30 08:48:27;;;;;;;;;;;;;;;7.39;52.56;101133.47;5417571;32;33945;-77
2022/11/30 08:51:29;;;;;;;;;;;;;;;6.62;53.74;101144.00;5410234;32;34314;-75
2022/11/30 08:54:51;;;;;;;;;;;;;;;7.47;52.51;101139.47;5420425;32;34652;-79
2022/11/30 08:57:53;;;;;;;;;;;;;;;7.69;51.96;101137.38;5392934;32;34833;-77
2022/11/30 09:01:04;;;;;;;;;;;;;;;7.95;50.99;101136.13;5426386;32;34271;-76
2022/11/30 09:04:06;;;;;;;;;;;;;;;8.03;50.69;101137.69;5401712;32;44426;-74
2022/11/30 09:07:08;;;;;;;;;;;;;;;7.27;52.88;101144.09;5421446;32;34254;-71
2022/11/30 09:10:10;;;;;;;;;;;;;;;7.71;51.60;101137.34;5416182;32;34292;-71
2022/11/30 09:13:12;;;;;;;;;;;;;;;6.93;52.84;101147.12;5377034;32;852909;-71
2022/11/30 09:16:16;;;;;;;;;;;;;;;8.05;50.61;101138.56;5431449;32;35605;-71
2022/11/30 09:19:18;;;;;;;;;;;;;;;7.92;50.52;101133.53;5395763;32;35767;-71
2022/11/30 09:22:20;;;;;;;;;;;;;;;7.82;50.27;101128.44;5425084;32;35390;-72
2022/11/30 09:25:22;;;;;;;;;;;;;;;8.12;49.56;101132.34;5401070;32;34315;-73
2022/11/30 09:28:24;;;;;;;;;;;;;;;8.58;48.59;101136.78;5418840;32;34633;-74
2022/11/30 09:31:26;;;;;;;;;;;;;;;7.69;50.22;101140.00;5423014;32;36491;-74
2022/11/30 09:34:28;;;;;;;;;;;;;;;7.90;50.47;101140.56;5402615;32;34274;-76
2022/11/30 09:37:30;;;;;;;;;;;;;;;8.06;48.21;101137.66;5426694;32;34102;-75
2022/11/30 09:40:34;;;;;;;;;;;;;;;7.63;49.69;101136.62;5408776;32;46169;-76
2022/11/30 09:43:45;;;;;;;;;;;;;;;8.05;49.11;101133.31;5425476;32;34281;-74
2022/11/30 09:47:06;;;;;;;;;;;;;;;9.05;46.56;101111.34;5404815;32;34033;-77
2022/11/30 09:50:15;;;;;;;;;;;;;;;9.15;46.93;101131.25;5417241;32;45996;-73
2022/11/30 09:53:21;;;;;;;;;;;;;;;8.77;47.30;101139.03;5413451;32;34413;-75
2022/11/30 09:56:31;;;;;;;;;;;;;;;8.11;48.36;101138.47;5404558;32;34201;-77
2022/11/30 09:59:33;;;;;;;;;;;;;;;8.31;48.10;101132.00;5427114;32;44474;-87
2022/11/30 10:02:36;;;;;;;;;;;;;;;8.32;48.98;101123.25;5409029;32;34393;-86
2022/11/30 10:05:46;;;;;;;;;;;;;;;8.24;49.32;101128.59;5425335;32;34228;-85
2022/11/30 10:08:48;;;;;;;;;;;;;;;8.88;47.57;101126.56;5425889;32;34837;-76
2022/11/30 10:11:57;;;;;;;;;;;;;;;8.58;47.65;101126.28;5392331;32;34491;-76
2022/11/30 10:15:08;;;;;;;;;;;;;;;7.97;48.95;101129.94;5407672;32;34334;-77
2022/11/30 10:18:13;;;;;;;;;;;;;;;8.43;48.54;101128.31;5400009;32;44646;-89
2022/11/30 10:21:30;;;;;;;;;;;;;;;8.40;48.65;101131.87;5396918;32;34395;-77
2022/11/30 10:24:35;;;;;;;;;;;;;;;8.99;47.74;101115.84;5400174;32;44714;-77
2022/11/30 10:27:40;;;;;;;;;;;;;;;8.84;48.35;101117.06;5401284;32;35476;-73
2022/11/30 10:30:42;;;;;;;;;;;;;;;8.88;47.26;101113.44;5400101;32;35615;-74
2022/11/30 10:33:48;;;;;;;;;;;;;;;8.29;48.55;101113.69;5399756;32;34960;-73
2022/11/30 10:36:53;;;;;;;;;;;;;;;8.83;48.15;101102.22;5378300;32;34320;-77
2022/11/30 10:40:02;;;;;;;;;;;;;;;8.63;48.87;101095.63;5404968;32;34369;-82
2022/11/30 10:43:12;;;;;;;;;;;;;;;8.50;49.21;101094.13;5368229;32;44480;-77
2022/11/30 10:46:18;;;;;;;;;;;;;;;9.37;46.97;101097.53;5417614;32;34258;-71
2022/11/30 10:49:22;;;;;;;;;;;;;;;10.09;45.24;101098.41;5386229;32;34122;-71
2022/11/30 10:52:32;;;;;;;;;;;;;;;9.53;46.01;101086.66;5391933;32;35208;-74
2022/11/30 10:55:35;;;;;;;;;;;;;;;8.81;47.77;101097.00;5389050;32;46137;-76
2022/11/30 10:58:43;;;;;;;;;;;;;;;10.03;45.32;101090.69;5393593;32;35744;-77
2022/11/30 11:01:45;;;;;;;;;;;;;;;9.94;45.13;101091.78;5413419;32;37034;-71
2022/11/30 11:04:47;;;;;;;;;;;;;;;9.43;45.51;101075.53;5395562;32;35409;-76
2022/11/30 11:07:56;;;;;;;;;;;;;;;9.54;45.28;101080.53;5396667;32;36008;-78
2022/11/30 11:11:45;;;;;;;;;;;;;;;10.33;44.00;101075.06;5390961;32;44434;-73
2022/11/30 11:14:47;;;;;;;;;;;;;;;9.45;45.32;101087.72;5304015;32;34966;-73
2022/11/30 11:17:49;;;;;;;;;;;;;;;10.45;43.95;101064.22;5313188;32;37291;-73
2022/11/30 11:21:14;;;;;;;;;;;;;;;10.11;44.29;101077.34;5367705;32;35379;-72
2022/11/30 11:24:18;;;;;;;;;;;;;;;10.07;44.39;101079.19;5392841;32;34344;-71
2022/11/30 11:27:30;;;;;;;;;;;;;;;9.44;46.56;101079.88;5401083;32;34277;-72
2022/11/30 11:30:32;;;;;;;;;;;;;;;9.63;46.07;101085.56;5403342;32;44809;-69
2022/11/30 11:33:34;;;;;;;;;;;;;;;9.65;45.57;101075.88;5382638;32;34110;-71
2022/11/30 11:36:36;;;;;;;;;;;;;;;9.42;46.09;101079.94;5395771;32;34201;-72
2022/11/30 11:39:37;;;;;;;;;;;;;;;9.59;46.22;101082.13;5401284;32;34277;-76
2022/11/30 11:42:41;;;;;;;;;;;;;;;9.93;45.29;101083.94;5387231;32;34154;-72
2022/11/30 11:45:48;;;;;;;;;;;;;;;10.29;44.59;101077.75;5410681;32;34289;-71
2022/11/30 11:48:57;;;;;;;;;;;;;;;10.55;44.12;101079.66;5384123;32;36792;-72
2022/11/30 11:52:02;;;;;;;;;;;;;;;10.08;44.98;101083.53;5375283;32;33843;-71
2022/11/30 11:55:05;;;;;;;;;;;;;;;10.95;43.77;101069.75;5416390;32;44863;-72
2022/11/30 11:58:07;;;;;;;;;;;;;;;10.66;44.03;101076.75;5388753;32;34280;-75
2022/11/30 12:01:11;;;;;;;;;;;;;;;11.18;42.49;101069.06;5413482;32;34449;-77
2022/11/30 12:04:41;;;;;;;;;;;;;;;10.89;43.54;101069.97;5386644;32;47354;-69
2022/11/30 12:07:56;;;;;;;;;;;;;;;11.85;41.53;101075.72;5406697;32;36427;-71
2022/11/30 12:11:04;;;;;;;;;;;;;;;10.77;43.76;101076.44;5405458;32;35890;-68
2022/11/30 12:14:10;;;;;;;;;;;;;;;10.73;44.08;101072.16;5376594;32;45064;-70
2022/11/30 12:17:24;;;;;;;;;;;;;;;10.46;44.73;101065.94;5401766;32;34901;-71
2022/11/30 12:20:56;;;;;;;;;;;;;;;10.66;44.39;101062.75;5385651;32;33847;-71
2022/11/30 12:24:01;;;;;;;;;;;;;;;10.14;45.61;101072.88;5386043;32;34171;-69
2022/11/30 12:27:33;;;;;;;;;;;;;;;10.99;44.32;101066.16;5422258;32;44641;-85
2022/11/30 12:30:41;;;;;;;;;;;;;;;10.62;44.29;101061.94;5342117;32;45405;-85
2022/11/30 12:33:58;;;;;;;;;;;;;;;11.12;43.61;101064.84;5420494;32;34764;-87
2022/11/30 12:37:00;;;;;;;;;;;;;;;10.46;44.93;101055.41;5421866;32;34209;-89
2022/11/30 12:40:22;;;;;;;;;;;;;;;10.58;45.24;101065.59;5389428;32;44643;-68
2022/11/30 12:43:51;;;;;;;;;;;;;;;10.69;45.28;101052.12;5413428;32;34333;-88
2022/11/30 12:46:57;;;;;;;;;;;;;;;10.91;44.60;101052.38;5363882;32;34640;-68
2022/11/30 12:50:06;;;;;;;;;;;;;;;11.22;43.05;101047.03;5391512;32;35691;-70
2022/11/30 12:53:27;;;;;;;;;;;;;;;10.69;44.21;101052.12;5405072;32;46698;-67
2022/11/30 12:56:35;;;;;;;;;;;;;;;10.70;44.80;101049.47;5395786;32;34311;-73
2022/11/30 12:59:49;;;;;;;;;;;;;;;11.04;44.30;101053.72;5404993;32;36064;-75
2022/11/30 13:03:14;;;;;;;;;;;;;;;10.79;42.45;101049.19;5398726;32;34330;-80
2022/11/30 13:06:18;;;;;;;;;;;;;;;9.86;45.10;101058.75;5391405;32;35478;-87
2022/11/30 13:09:36;;;;;;;;;;;;;;;9.70;46.38;101058.25;5415747;32;34421;-90
2022/11/30 13:12:41;;;;;;;;;;;;;;;9.82;46.53;101049.22;5395923;32;44617;-79
2022/11/30 13:15:43;;;;;;;;;;;;;;;9.62;45.74;101049.72;5398644;32;34287;-81
2022/11/30 13:18:45;;;;;;;;;;;;;;;10.33;45.16;101047.00;5374504;32;34914;-69
2022/11/30 13:21:55;;;;;;;;;;;;;;;10.21;46.42;101049.94;5377209;32;34178;-75
2022/11/30 13:25:08;;;;;;;;;;;;;;;10.14;45.29;101048.38;5402735;32;34689;-76
2022/11/30 13:28:12;;;;;;;;;;;;;;;11.28;43.70;101041.59;5396632;32;44671;-76
2022/11/30 13:31:16;;;;;;;;;;;;;;;9.79;45.99;101052.81;5390443;32;34269;-82
2022/11/30 13:34:25;;;;;;;;;;;;;;;10.46;44.25;101052.78;5400033;32;34604;-72
2022/11/30 13:37:27;;;;;;;;;;;;;;;9.66;45.84;101052.25;5399580;32;35260;-74
2022/11/30 13:40:29;;;;;;;;;;;;;;;9.55;45.44;101046.38;5420632;32;34285;-81
2022/11/30 13:43:36;;;;;;;;;;;;;;;10.23;44.17;101045.53;5380014;32;45034;-77
2022/11/30 13:46:38;;;;;;;;;;;;;;;10.29;43.17;101048.84;5410284;32;35842;-77
2022/11/30 13:49:40;;;;;;;;;;;;;;;9.53;45.03;101061.28;5404769;32;35053;-81
2022/11/30 13:52:57;;;;;;;;;;;;;;;10.21;43.35;101058.69;5415568;32;35127;-82
2022/11/30 13:56:00;;;;;;;;;;;;;;;9.52;44.18;101061.31;5409564;32;34213;-77
2022/11/30 13:59:40;;;;;;;;;;;;;;;9.79;44.08;101063.31;5424883;32;45099;-79
2022/11/30 14:02:42;;;;;;;;;;;;;;;9.70;44.18;101061.75;5350082;32;35886;-73
2022/11/30 14:05:46;;;;;;;;;;;;;;;9.52;44.37;101058.69;5408143;32;35584;-84
2022/11/30 14:08:48;;;;;;;;;;;;;;;10.25;42.75;101054.25;5427421;32;34393;-81
2022/11/30 14:11:50;;;;;;;;;;;;;;;9.82;43.48;101063.22;5411063;32;34319;-78
2022/11/30 14:14:52;;;;;;;;;;;;;;;10.11;43.21;101051.97;5415050;32;35992;-73
2022/11/30 14:17:56;;;;;;;;;;;;;;;9.99;43.09;101057.53;5415627;32;36198;-75
2022/11/30 14:21:03;;;;;;;;;;;;;;;10.08;43.52;101059.03;5395690;32;34439;-86
2022/11/30 14:24:06;;;;;;;;;;;;;;;10.19;42.65;101052.62;5421232;32;46244;-75
2022/11/30 14:27:11;;;;;;;;;;;;;;;9.24;44.26;101061.97;5398492;32;35314;-79
2022/11/30 14:30:17;;;;;;;;;;;;;;;10.47;42.27;101057.13;5425369;32;35448;-75
2022/11/30 14:33:28;;;;;;;;;;;;;;;10.48;42.23;101050.97;5415895;32;35551;-73
2022/11/30 14:36:35;;;;;;;;;;;;;;;10.68;42.17;101050.41;5400970;32;34207;-74
2022/11/30 14:39:40;;;;;;;;;;;;;;;10.50;42.38;101057.06;5408072;32;45042;-71
2022/11/30 14:42:55;;;;;;;;;;;;;;;10.39;41.71;101054.72;5404315;32;35358;-71
2022/11/30 14:46:01;;;;;;;;;;;;;;;9.54;43.62;101056.94;5408127;32;34756;-86
2022/11/30 14:49:14;;;;;;;;;;;;;;;9.97;42.71;101049.69;5406361;32;44531;-82
2022/11/30 14:52:23;;;;;;;;;;;;;;;10.54;41.76;101050.81;5413283;32;34222;-81
2022/11/30 14:55:31;;;;;;;;;;;;;;;10.02;42.13;101063.56;5402313;32;35437;-71
2022/11/30 14:58:39;;;;;;;;;;;;;;;10.19;42.06;101046.50;5407325;32;47145;-68
2022/11/30 15:01:41;;;;;;;;;;;;;;;9.76;42.87;101052.84;5421316;32;35516;-70
2022/11/30 15:04:43;;;;;;;;;;;;;;;9.48;43.06;101055.31;5415880;32;34093;-71
2022/11/30 15:07:45;;;;;;;;;;;;;;;9.74;43.28;101049.41;5420107;32;34340;-74
2022/11/30 15:10:50;;;;;;;;;;;;;;;10.62;40.98;101025.16;5398874;32;34455;-72
2022/11/30 15:13:53;;;;;;;;;;;;;;;9.50;43.32;101046.47;5400550;32;34339;-79
2022/11/30 15:16:56;;;;;;;;;;;;;;;10.30;41.90;101034.84;5415938;32;35014;-73
2022/11/30 15:19:58;;;;;;;;;;;;;;;10.70;40.70;101041.59;5382667;32;37755;-72
2022/11/30 15:23:00;;;;;;;;;;;;;;;10.82;40.01;101041.22;5413424;32;37221;-79
2022/11/30 15:26:04;;;;;;;;;;;;;;;10.44;40.37;101047.59;5398383;32;44713;-78
2022/11/30 15:29:07;;;;;;;;;;;;;;;9.59;42.01;101053.25;5392249;32;34624;-74
2022/11/30 15:32:16;;;;;;;;;;;;;;;10.37;40.64;101042.50;5407237;32;35502;-71
2022/11/30 15:35:19;;;;;;;;;;;;;;;10.07;40.80;101050.31;5394375;32;33682;-75
2022/11/30 15:38:25;;;;;;;;;;;;;;;10.63;39.98;101037.41;5405595;32;36756;-72
2022/11/30 15:41:27;;;;;;;;;;;;;;;10.74;39.61;101030.06;5394256;32;35380;-75
2022/11/30 15:44:31;;;;;;;;;;;;;;;10.87;39.58;101040.19;5411532;32;34289;-73
2022/11/30 15:47:39;;;;;;;;;;;;;;;10.87;39.71;101038.44;5408200;32;44819;-74
2022/11/30 15:50:41;;;;;;;;;;;;;;;10.48;40.39;101043.94;5406627;32;34233;-74
2022/11/30 15:53:48;;;;;;;;;;;;;;;10.74;40.15;101039.72;5423888;32;34010;-78
2022/11/30 15:56:55;;;;;;;;;;;;;;;10.21;40.70;101045.53;5388408;32;35775;-80
2022/11/30 16:00:12;;;;;;;;;;;;;;;9.68;41.88;101045.19;5426243;32;34505;-72
2022/11/30 16:03:14;;;;;;;;;;;;;;;9.88;41.61;101047.31;5388322;32;36055;-73
2022/11/30 16:06:16;;;;;;;;;;;;;;;9.39;42.95;101043.25;5409820;32;34326;-77